createdAt,value
2018-07-11T00:00:07.049Z,12.60
2018-07-11T00:02:35.383Z,12.60
2018-07-11T00:05:03.750Z,12.60
2018-07-11T00:07:32.108Z,12.50
2018-07-11T00:10:00.458Z,12.50
2018-07-11T00:12:28.800Z,12.40
2018-07-11T00:14:57.147Z,12.40
2018-07-11T00:17:25.489Z,12.30
2018-07-11T00:19:53.885Z,12.30
2018-07-11T00:22:22.256Z,12.30
2018-07-11T00:24:50.640Z,12.30
2018-07-11T00:27:19.009Z,12.20
2018-07-11T00:32:15.425Z,12.20
2018-07-11T00:34:43.768Z,12.10
2018-07-11T00:37:12.203Z,12.10
2018-07-11T00:39:40.545Z,12.10
2018-07-11T00:42:08.937Z,12.10
2018-07-11T00:44:37.337Z,12.10
2018-07-11T00:47:05.732Z,12.10
2018-07-11T00:49:34.077Z,12.10
2018-07-11T00:52:02.586Z,12.00
2018-07-11T00:54:30.932Z,12.00
2018-07-11T00:56:59.772Z,12.10
2018-07-11T00:59:29.133Z,12.10
2018-07-11T01:02:03.376Z,12.10
2018-07-11T01:04:31.892Z,12.00
2018-07-11T01:07:01.392Z,12.00
2018-07-11T01:09:30.469Z,12.00
2018-07-11T01:11:58.869Z,11.90
2018-07-11T01:14:27.249Z,11.90
2018-07-11T01:16:55.649Z,11.90
2018-07-11T01:19:24.027Z,11.90
2018-07-11T01:22:02.491Z,11.90
2018-07-11T01:24:32.278Z,11.90
2018-07-11T01:27:01.191Z,11.90
2018-07-11T01:29:29.512Z,11.90
2018-07-11T01:31:57.868Z,11.90
2018-07-11T01:34:26.210Z,11.90
2018-07-11T01:36:54.568Z,12.00
2018-07-11T01:39:22.932Z,11.90
2018-07-11T01:41:51.292Z,11.90
2018-07-11T01:44:19.650Z,11.90
2018-07-11T01:46:50.268Z,11.90
2018-07-11T01:49:18.677Z,11.90
2018-07-11T01:51:58.488Z,12.00
2018-07-11T01:54:27.670Z,11.90
2018-07-11T01:56:56.028Z,12.00
2018-07-11T01:59:26.268Z,11.90
2018-07-11T02:01:54.829Z,12.00
2018-07-11T02:04:23.225Z,12.00
2018-07-11T02:06:51.590Z,12.00
2018-07-11T02:09:20.018Z,12.00
2018-07-11T02:11:48.389Z,11.90
2018-07-11T02:14:16.801Z,11.90
2018-07-11T02:16:45.300Z,11.90
2018-07-11T02:19:21.035Z,11.90
2018-07-11T02:21:50.125Z,11.90
2018-07-11T02:24:19.383Z,11.90
2018-07-11T02:26:47.768Z,11.90
2018-07-11T02:29:16.205Z,12.00
2018-07-11T02:31:44.534Z,12.00
2018-07-11T02:34:12.964Z,12.00
2018-07-11T02:39:09.397Z,12.10
2018-07-11T02:41:37.960Z,12.10
2018-07-11T02:44:06.353Z,12.10
2018-07-11T02:46:40.059Z,12.00
2018-07-11T02:49:08.458Z,12.00
2018-07-11T02:51:37.868Z,12.00
2018-07-11T02:54:06.278Z,12.10
2018-07-11T02:56:34.649Z,12.10
2018-07-11T02:59:03.023Z,12.10
2018-07-11T03:01:31.385Z,12.20
2018-07-11T03:03:59.745Z,12.20
2018-07-11T03:06:28.073Z,12.20
2018-07-11T03:08:56.413Z,12.30
2018-07-11T03:11:24.730Z,12.30
2018-07-11T03:13:53.257Z,12.30
2018-07-11T03:16:21.577Z,12.30
2018-07-11T03:21:18.001Z,12.40
2018-07-11T03:23:46.364Z,12.40
2018-07-11T03:26:14.733Z,12.30
2018-07-11T03:28:43.080Z,12.30
2018-07-11T03:31:11.433Z,12.30
2018-07-11T03:33:39.776Z,12.30
2018-07-11T03:36:08.142Z,12.30
2018-07-11T03:38:36.740Z,12.30
2018-07-11T03:41:05.091Z,12.40
2018-07-11T03:43:33.448Z,12.40
2018-07-11T03:46:01.858Z,12.40
2018-07-11T03:48:30.196Z,12.40
2018-07-11T03:50:58.565Z,12.50
2018-07-11T03:53:26.884Z,12.50
2018-07-11T03:55:55.225Z,12.50
2018-07-11T03:58:23.549Z,12.50
2018-07-11T04:00:51.894Z,12.50
2018-07-11T04:03:20.209Z,12.60
2018-07-11T04:05:48.552Z,12.60
2018-07-11T04:10:44.936Z,12.60
2018-07-11T04:13:16.934Z,12.60
2018-07-11T04:15:45.321Z,12.60
2018-07-11T04:18:21.790Z,12.60
2018-07-11T04:20:50.139Z,12.50
2018-07-11T04:23:18.476Z,12.60
2018-07-11T04:25:46.897Z,12.60
2018-07-11T04:28:15.289Z,12.60
2018-07-11T04:30:43.692Z,12.60
2018-07-11T04:33:12.123Z,12.60
2018-07-11T04:35:40.525Z,12.60
2018-07-11T04:38:08.981Z,12.60
2018-07-11T04:40:37.893Z,12.70
2018-07-11T04:43:06.296Z,12.70
2018-07-11T04:45:34.742Z,12.70
2018-07-11T04:48:03.157Z,12.80
2018-07-11T04:50:31.582Z,12.80
2018-07-11T04:53:01.841Z,12.80
2018-07-11T04:55:30.834Z,12.80
2018-07-11T04:57:59.170Z,12.80
2018-07-11T05:00:27.508Z,12.80
2018-07-11T05:02:56.240Z,12.80
2018-07-11T05:05:24.813Z,12.80
2018-07-11T05:07:53.200Z,12.80
2018-07-11T05:10:21.650Z,12.80
2018-07-11T05:12:50.026Z,12.80
2018-07-11T05:15:18.372Z,12.80
2018-07-11T05:17:46.694Z,12.90
2018-07-11T05:20:15.057Z,12.90
2018-07-11T05:22:43.409Z,12.90
2018-07-11T05:25:11.757Z,13.00
2018-07-11T05:27:40.084Z,13.00
2018-07-11T05:30:08.421Z,13.00
2018-07-11T05:32:36.772Z,13.10
2018-07-11T05:35:05.141Z,13.10
2018-07-11T05:37:33.480Z,13.10
2018-07-11T05:40:01.832Z,13.10
2018-07-11T05:42:30.179Z,13.10
2018-07-11T05:44:58.524Z,13.10
2018-07-11T05:47:26.876Z,13.10
2018-07-11T05:52:23.326Z,13.20
2018-07-11T05:57:22.366Z,13.30
2018-07-11T05:59:50.709Z,13.40
2018-07-11T06:02:19.065Z,13.50
2018-07-11T06:04:47.410Z,13.50
2018-07-11T06:07:15.757Z,13.60
2018-07-11T06:09:44.091Z,13.50
2018-07-11T06:12:12.456Z,13.50
2018-07-11T06:14:40.789Z,13.50
2018-07-11T06:17:09.139Z,13.40
2018-07-11T06:19:37.477Z,13.40
2018-07-11T06:22:05.861Z,13.40
2018-07-11T06:24:35.039Z,13.40
2018-07-11T06:27:03.380Z,13.40
2018-07-11T06:29:31.721Z,13.40
2018-07-11T06:32:00.153Z,13.50
2018-07-11T06:34:28.476Z,13.50
2018-07-11T06:36:56.830Z,13.50
2018-07-11T06:39:25.239Z,13.60
2018-07-11T06:41:53.536Z,13.70
2018-07-11T06:44:21.917Z,13.90
2018-07-11T06:46:50.270Z,14.00
2018-07-11T06:49:18.638Z,14.00
2018-07-11T06:51:47.032Z,14.00
2018-07-11T06:54:15.360Z,14.10
2018-07-11T06:56:43.713Z,14.20
2018-07-11T06:59:12.046Z,14.20
2018-07-11T07:01:40.384Z,14.20
2018-07-11T07:04:08.745Z,14.20
2018-07-11T07:06:37.092Z,14.30
2018-07-11T07:09:06.175Z,14.30
2018-07-11T07:11:34.620Z,14.30
2018-07-11T07:14:02.957Z,14.40
2018-07-11T07:16:31.303Z,14.50
2018-07-11T07:18:59.688Z,14.50
2018-07-11T07:21:28.044Z,14.60
2018-07-11T07:23:56.369Z,14.70
2018-07-11T07:28:52.765Z,15.00
2018-07-11T07:31:21.131Z,15.10
2018-07-11T07:33:49.469Z,15.30
2018-07-11T07:36:17.808Z,15.30
2018-07-11T07:38:46.180Z,15.30
2018-07-11T07:41:14.513Z,15.30
2018-07-11T07:43:44.182Z,15.30
2018-07-11T07:46:12.643Z,15.20
2018-07-11T07:48:41.072Z,15.20
2018-07-11T07:51:09.434Z,15.20
2018-07-11T07:53:37.801Z,15.30
2018-07-11T07:56:06.440Z,15.30
2018-07-11T07:58:34.846Z,15.20
2018-07-11T08:01:03.260Z,15.10
2018-07-11T08:03:34.316Z,14.90
2018-07-11T08:06:02.645Z,14.80
2018-07-11T08:08:30.989Z,14.70
2018-07-11T08:10:59.345Z,14.60
2018-07-11T08:13:27.695Z,14.70
2018-07-11T08:15:56.107Z,14.80
2018-07-11T08:18:24.503Z,15.10
2018-07-11T08:20:52.860Z,15.30
2018-07-11T08:23:40.172Z,15.50
2018-07-11T08:26:19.899Z,15.50
2018-07-11T08:31:01.541Z,15.50
2018-07-11T08:33:44.433Z,15.50
2018-07-11T08:36:24.105Z,15.90
2018-07-11T08:39:04.437Z,16.20
2018-07-11T08:41:47.338Z,16.40
2018-07-11T08:46:29.297Z,16.40
2018-07-11T08:51:20.783Z,16.20
2018-07-11T08:54:04.073Z,16.00
2018-07-11T08:57:17.850Z,15.90
2018-07-11T09:00:02.054Z,15.80
2018-07-11T09:02:56.544Z,15.80
2018-07-11T09:05:32.883Z,16.00
2018-07-11T09:11:15.355Z,16.30
2018-07-11T09:13:53.402Z,16.50
2018-07-11T09:16:32.989Z,16.60
2018-07-11T09:21:20.556Z,16.50
2018-07-11T09:24:02.070Z,16.40
2018-07-11T09:26:30.497Z,16.00
2018-07-11T09:28:58.994Z,15.80
2018-07-11T09:31:27.345Z,15.80
2018-07-11T09:33:55.712Z,15.70
2018-07-11T09:36:24.091Z,15.70
2018-07-11T09:38:52.474Z,15.70
2018-07-11T09:41:20.859Z,15.70
2018-07-11T09:43:49.578Z,15.70
2018-07-11T09:46:17.996Z,15.70
2018-07-11T09:48:46.401Z,15.70
2018-07-11T09:51:14.789Z,15.70
2018-07-11T09:53:43.215Z,15.80
2018-07-11T09:56:11.625Z,15.80
2018-07-11T09:58:40.898Z,15.90
2018-07-11T10:01:14.510Z,16.00
2018-07-11T10:03:42.935Z,16.10
2018-07-11T10:06:11.481Z,16.30
2018-07-11T10:13:36.428Z,16.70
2018-07-11T10:16:04.817Z,17.00
2018-07-11T10:18:33.176Z,17.30
2018-07-11T10:21:01.567Z,17.30
2018-07-11T10:23:29.953Z,17.10
2018-07-11T10:25:58.316Z,16.90
2018-07-11T10:28:26.732Z,16.80
2018-07-11T10:30:55.092Z,16.70
2018-07-11T10:33:23.742Z,16.60
2018-07-11T10:35:52.178Z,16.60
2018-07-11T10:38:20.514Z,16.70
2018-07-11T10:40:48.945Z,16.70
2018-07-11T10:43:18.095Z,16.80
2018-07-11T10:48:14.588Z,17.10
2018-07-11T10:50:43.130Z,17.30
2018-07-11T10:53:12.053Z,17.30
2018-07-11T10:55:41.029Z,17.30
2018-07-11T10:58:09.897Z,17.20
2018-07-11T11:00:38.338Z,17.10
2018-07-11T11:03:06.671Z,17.00
2018-07-11T11:05:35.756Z,16.70
2018-07-11T11:08:04.222Z,16.50
2018-07-11T11:10:32.586Z,16.20
2018-07-11T11:13:01.262Z,16.00
2018-07-11T11:15:29.646Z,15.90
2018-07-11T11:17:58.633Z,15.80
2018-07-11T11:20:27.041Z,15.70
2018-07-11T11:22:55.429Z,15.60
2018-07-11T11:25:23.797Z,15.50
2018-07-11T11:27:52.143Z,15.50
2018-07-11T11:30:20.937Z,15.50
2018-07-11T11:32:49.640Z,15.50
2018-07-11T11:35:18.289Z,15.50
2018-07-11T11:37:46.722Z,15.60
2018-07-11T11:40:15.109Z,15.60
2018-07-11T11:42:43.754Z,15.80
2018-07-11T11:45:12.057Z,15.90
2018-07-11T11:47:40.401Z,16.20
2018-07-11T11:50:08.801Z,16.40
2018-07-11T11:52:37.141Z,16.70
2018-07-11T11:57:33.580Z,17.00
2018-07-11T12:00:01.988Z,17.10
2018-07-11T12:02:30.326Z,17.20
2018-07-11T12:04:58.700Z,17.40
2018-07-11T12:07:27.086Z,17.60
2018-07-11T12:09:55.449Z,17.60
2018-07-11T12:12:23.829Z,17.60
2018-07-11T12:14:52.151Z,17.60
2018-07-11T12:22:20.670Z,17.60
2018-07-11T12:27:17.625Z,17.50
2018-07-11T12:29:46.144Z,17.50
2018-07-11T12:32:14.705Z,17.50
2018-07-11T12:34:43.241Z,17.50
2018-07-11T12:37:12.252Z,17.50
2018-07-11T12:39:40.733Z,17.50
2018-07-11T12:42:09.684Z,17.60
2018-07-11T12:44:38.108Z,17.70
2018-07-11T12:48:10.588Z,17.70
2018-07-11T12:50:39.052Z,17.70
2018-07-11T12:53:07.408Z,17.70
2018-07-11T12:55:35.832Z,17.70
2018-07-11T12:58:04.482Z,17.60
2018-07-11T13:00:33.267Z,17.70
2018-07-11T13:04:25.452Z,17.80
2018-07-11T13:06:55.125Z,17.90
2018-07-11T13:09:26.242Z,17.90
2018-07-11T13:11:56.564Z,17.80
2018-07-11T13:14:25.865Z,17.60
2018-07-11T13:16:56.215Z,17.60
2018-07-11T13:19:25.240Z,17.60
2018-07-11T13:21:53.608Z,17.50
2018-07-11T13:24:22.025Z,17.50
2018-07-11T13:26:50.636Z,17.30
2018-07-11T13:29:19.665Z,17.20
2018-07-11T13:31:48.321Z,17.10
2018-07-11T13:34:16.818Z,17.00
2018-07-11T13:36:45.319Z,16.90
2018-07-11T13:39:22.645Z,16.80
2018-07-11T13:41:51.657Z,16.80
2018-07-11T13:44:20.010Z,16.80
2018-07-11T13:46:48.618Z,16.70
2018-07-11T13:49:17.004Z,16.70
2018-07-11T13:51:45.361Z,16.70
2018-07-11T13:54:13.749Z,16.70
2018-07-11T13:56:42.317Z,16.70
2018-07-11T13:59:10.700Z,16.70
2018-07-11T14:01:39.064Z,16.70
2018-07-11T14:04:07.523Z,16.60
2018-07-11T14:06:36.168Z,16.60
2018-07-11T14:09:05.749Z,16.60
2018-07-11T14:11:34.480Z,16.60
2018-07-11T14:14:04.415Z,16.70
2018-07-11T14:16:33.754Z,16.60
2018-07-11T14:19:02.378Z,16.60
2018-07-11T14:21:31.272Z,16.70
2018-07-11T14:23:59.994Z,16.70
2018-07-11T14:26:29.194Z,16.80
2018-07-11T14:28:57.994Z,16.90
2018-07-11T14:31:30.684Z,17.00
2018-07-11T14:34:00.914Z,17.20
2018-07-11T14:36:29.307Z,17.30
2018-07-11T14:38:58.074Z,17.50
2018-07-11T14:41:26.454Z,17.80
2018-07-11T14:43:55.673Z,17.80
2018-07-11T14:46:25.261Z,17.80
2018-07-11T14:48:53.746Z,17.80
2018-07-11T14:51:22.191Z,17.80
2018-07-11T14:53:50.884Z,17.90
2018-07-11T14:56:19.285Z,18.00
2018-07-11T14:58:47.701Z,18.00
2018-07-11T15:01:16.092Z,18.10
2018-07-11T15:03:44.485Z,18.10
2018-07-11T15:06:13.912Z,18.30
2018-07-11T15:08:42.383Z,18.40
2018-07-11T15:11:10.848Z,18.60
2018-07-11T15:13:39.232Z,18.70
2018-07-11T15:16:07.605Z,18.60
2018-07-11T15:18:36.013Z,18.70
2018-07-11T15:21:04.445Z,18.80
2018-07-11T15:23:32.837Z,18.80
2018-07-11T15:26:01.304Z,18.90
2018-07-11T15:28:29.782Z,19.00
2018-07-11T15:30:58.169Z,19.00
2018-07-11T15:33:26.829Z,19.10
2018-07-11T15:35:55.225Z,19.30
2018-07-11T15:38:23.629Z,19.40
2018-07-11T15:40:52.017Z,19.40
2018-07-11T15:48:16.728Z,19.30
2018-07-11T15:50:45.176Z,19.20
2018-07-11T15:53:13.566Z,19.10
2018-07-11T15:55:42.217Z,18.90
2018-07-11T15:58:12.812Z,18.80
2018-07-11T16:00:42.405Z,18.80
2018-07-11T16:03:12.233Z,18.70
2018-07-11T16:05:42.670Z,18.70
2018-07-11T16:08:10.955Z,18.70
2018-07-11T16:13:10.878Z,18.80
2018-07-11T16:15:39.295Z,18.70
2018-07-11T16:20:37.236Z,18.60
2018-07-11T16:23:06.125Z,18.60
2018-07-11T16:25:34.580Z,18.60
2018-07-11T16:28:03.713Z,18.70
2018-07-11T16:30:32.113Z,18.70
2018-07-11T16:33:00.765Z,18.80
2018-07-11T16:35:29.156Z,18.90
2018-07-11T16:37:57.676Z,18.80
2018-07-11T16:40:26.473Z,18.80
2018-07-11T16:42:54.909Z,18.80
2018-07-11T16:45:23.707Z,18.80
2018-07-11T16:47:52.109Z,18.80
2018-07-11T16:50:20.977Z,18.80
2018-07-11T16:52:49.996Z,18.70
2018-07-11T16:57:48.041Z,18.90
2018-07-11T17:00:21.940Z,19.20
2018-07-11T17:03:14.757Z,19.50
2018-07-11T17:05:57.412Z,19.70
2018-07-11T17:08:31.094Z,19.60
2018-07-11T17:11:32.357Z,19.50
2018-07-11T17:14:02.204Z,19.50
2018-07-11T17:17:05.073Z,19.60
2018-07-11T17:19:38.842Z,19.80
2018-07-11T17:22:08.080Z,19.90
2018-07-11T17:24:45.749Z,20.00
2018-07-11T17:27:14.310Z,20.20
2018-07-11T17:29:43.208Z,20.30
2018-07-11T17:32:12.352Z,20.10
2018-07-11T17:34:41.070Z,19.80
2018-07-11T17:37:10.827Z,19.60
2018-07-11T17:39:51.238Z,19.40
2018-07-11T17:42:22.058Z,19.20
2018-07-11T17:45:09.301Z,19.00
2018-07-11T17:47:46.997Z,18.90
2018-07-11T17:50:15.574Z,18.80
2018-07-11T17:53:21.527Z,18.70
2018-07-11T17:56:00.129Z,18.70
2018-07-11T17:58:54.632Z,18.60
2018-07-11T18:01:31.441Z,18.70
2018-07-11T18:04:21.036Z,18.70
2018-07-11T18:09:39.609Z,18.60
2018-07-11T18:14:48.325Z,18.50
2018-07-11T18:17:31.621Z,18.40
2018-07-11T18:20:17.384Z,18.40
2018-07-11T18:22:59.073Z,18.40
2018-07-11T18:25:40.136Z,18.30
2018-07-11T18:28:20.021Z,18.30
2018-07-11T18:30:59.799Z,18.20
2018-07-11T18:33:39.062Z,18.10
2018-07-11T18:36:47.741Z,18.10
2018-07-11T18:39:25.061Z,18.00
2018-07-11T18:44:10.702Z,17.90
2018-07-11T18:46:49.715Z,17.90
2018-07-11T18:49:21.589Z,17.90
2018-07-11T18:52:53.590Z,17.90
2018-07-11T18:55:35.445Z,17.80
2018-07-11T19:00:20.006Z,17.70
2018-07-11T19:05:01.820Z,17.60
2018-07-11T19:09:48.191Z,17.60
2018-07-11T19:12:32.829Z,17.50
2018-07-11T19:15:09.636Z,17.30
2018-07-11T19:20:55.502Z,17.30
2018-07-11T19:24:00.608Z,17.20
2018-07-11T19:26:40.641Z,17.10
2018-07-11T19:29:21.857Z,17.00
2018-07-11T19:35:41.164Z,16.80
2018-07-11T19:38:13.980Z,16.80
2018-07-11T19:40:49.375Z,16.80
2018-07-11T19:45:32.800Z,16.70
2018-07-11T19:48:11.825Z,16.70
2018-07-11T19:51:06.466Z,16.60
2018-07-11T19:56:19.114Z,16.50
2018-07-11T19:58:47.497Z,16.50
2018-07-11T20:01:15.849Z,16.50
2018-07-11T20:03:44.261Z,16.50
2018-07-11T20:06:12.638Z,16.50
2018-07-11T20:08:41.117Z,16.50
2018-07-11T20:11:09.487Z,16.50
2018-07-11T20:13:37.894Z,16.50
2018-07-11T20:16:06.350Z,16.50
2018-07-11T20:18:34.885Z,16.50
2018-07-11T20:21:03.276Z,16.50
2018-07-11T20:23:31.620Z,16.40
2018-07-11T20:26:00.042Z,16.40
2018-07-11T20:28:28.408Z,16.40
2018-07-11T20:30:56.804Z,16.40
2018-07-11T20:33:25.220Z,16.30
2018-07-11T20:35:53.641Z,16.30
2018-07-11T20:38:21.996Z,16.30
2018-07-11T20:40:50.405Z,16.30
2018-07-11T20:43:18.817Z,16.30
2018-07-11T20:45:47.498Z,16.20
2018-07-11T20:48:16.029Z,16.20
2018-07-11T20:50:44.418Z,16.20
2018-07-11T20:53:12.813Z,16.10
2018-07-11T20:55:41.190Z,16.10
2018-07-11T20:58:20.720Z,16.00
2018-07-11T21:01:00.429Z,16.00
2018-07-11T21:04:37.633Z,16.00
2018-07-11T21:09:24.241Z,16.00
2018-07-11T21:14:13.686Z,16.00
2018-07-11T21:19:17.413Z,15.90
2018-07-11T21:21:45.761Z,15.90
2018-07-11T21:24:14.440Z,15.90
2018-07-11T21:26:42.785Z,15.90
2018-07-11T21:29:11.122Z,15.90
2018-07-11T21:31:39.489Z,15.80
2018-07-11T21:34:07.826Z,15.80
2018-07-11T21:36:36.149Z,15.80
2018-07-11T21:39:05.375Z,15.80
2018-07-11T21:44:01.939Z,15.80
2018-07-11T21:46:30.353Z,15.70
2018-07-11T21:48:58.665Z,15.70
2018-07-11T21:51:26.977Z,15.60
2018-07-11T21:53:55.325Z,15.60
2018-07-11T21:56:23.668Z,15.60
2018-07-11T21:58:52.014Z,15.50
2018-07-11T22:01:20.394Z,15.40
2018-07-11T22:06:16.808Z,15.40
2018-07-11T22:08:45.121Z,15.30
2018-07-11T22:11:13.493Z,15.30
2018-07-11T22:13:41.845Z,15.30
2018-07-11T22:16:10.187Z,15.30
2018-07-11T22:18:42.202Z,15.30
2018-07-11T22:21:10.459Z,15.30
2018-07-11T22:23:37.756Z,15.30
2018-07-11T22:28:32.561Z,15.20
2018-07-11T22:30:59.853Z,15.10
2018-07-11T22:33:27.134Z,15.10
2018-07-11T22:35:54.454Z,15.10
2018-07-11T22:38:21.697Z,15.00
2018-07-11T22:40:49.009Z,14.90
2018-07-11T22:43:16.273Z,14.90
2018-07-11T22:45:43.535Z,14.80
2018-07-11T22:48:10.833Z,14.70
2018-07-11T22:50:38.092Z,14.60
2018-07-11T22:53:05.379Z,14.60
2018-07-11T22:55:32.636Z,14.60
2018-07-11T22:57:59.930Z,14.50
2018-07-11T23:00:27.259Z,14.50
2018-07-11T23:02:54.517Z,14.50
2018-07-11T23:05:21.789Z,14.50
2018-07-11T23:07:49.076Z,14.50
2018-07-11T23:10:16.340Z,14.50
2018-07-11T23:12:43.633Z,14.40
2018-07-11T23:17:38.453Z,14.30
2018-07-11T23:22:33.273Z,14.30
2018-07-11T23:25:00.532Z,14.30
2018-07-11T23:27:27.819Z,14.30
2018-07-11T23:29:55.130Z,14.30
2018-07-11T23:32:22.393Z,14.30
2018-07-11T23:37:17.194Z,14.30
2018-07-11T23:39:44.485Z,14.30
2018-07-11T23:42:11.847Z,14.30
2018-07-11T23:44:39.137Z,14.30
2018-07-11T23:47:06.425Z,14.20
2018-07-11T23:49:33.689Z,14.20
2018-07-11T23:52:00.985Z,14.10
2018-07-11T23:54:28.246Z,14.10
2018-07-11T23:56:55.541Z,14.10
2018-07-11T23:59:22.800Z,14.10
